sensor_id;sensor_type;location;lat;lon;timestamp;pressure;altitude;pressure_sealevel;temperature;humidity
48810;BME280;40070;47.322;18.784;2023-03-11T00:00:43;981.73;;;10.59;61.24
48810;BME280;40070;47.322;18.784;2023-03-11T00:02:47;981.74;;;10.54;60.62
48810;BME280;40070;47.322;18.784;2023-03-11T00:04:49;981.62;;;10.68;60.09
48810;BME280;40070;47.322;18.784;2023-03-11T00:06:52;981.74;;;10.60;60.11
48810;BME280;40070;47.322;18.784;2023-03-11T00:08:54;981.70;;;10.65;59.87
48810;BME280;40070;47.322;18.784;2023-03-11T00:10:57;981.75;;;10.55;59.40
48810;BME280;40070;47.322;18.784;2023-03-11T00:13:00;981.75;;;10.46;59.62
48810;BME280;40070;47.322;18.784;2023-03-11T00:15:03;981.66;;;10.52;59.05
48810;BME280;40070;47.322;18.784;2023-03-11T00:17:05;981.71;;;10.55;59.08
48810;BME280;40070;47.322;18.784;2023-03-11T00:19:08;981.62;;;10.42;58.42
48810;BME280;40070;47.322;18.784;2023-03-11T00:21:14;981.66;;;10.52;58.45
48810;BME280;40070;47.322;18.784;2023-03-11T00:23:17;981.65;;;10.48;58.27
48810;BME280;40070;47.322;18.784;2023-03-11T00:25:20;981.49;;;10.49;58.23
48810;BME280;40070;47.322;18.784;2023-03-11T00:27:23;981.61;;;10.50;57.72
48810;BME280;40070;47.322;18.784;2023-03-11T00:29:26;981.61;;;10.49;57.45
48810;BME280;40070;47.322;18.784;2023-03-11T00:31:28;981.73;;;10.44;57.89
48810;BME280;40070;47.322;18.784;2023-03-11T00:33:30;981.70;;;10.44;57.05
48810;BME280;40070;47.322;18.784;2023-03-11T00:35:33;981.74;;;10.54;57.50
48810;BME280;40070;47.322;18.784;2023-03-11T00:37:36;981.82;;;10.43;57.48
48810;BME280;40070;47.322;18.784;2023-03-11T00:39:38;981.83;;;10.53;57.38
48810;BME280;40070;47.322;18.784;2023-03-11T00:41:40;981.77;;;10.57;57.48
48810;BME280;40070;47.322;18.784;2023-03-11T00:43:43;981.77;;;10.47;57.33
48810;BME280;40070;47.322;18.784;2023-03-11T00:45:45;981.78;;;10.54;57.37
48810;BME280;40070;47.322;18.784;2023-03-11T00:47:47;981.84;;;10.46;57.38
48810;BME280;40070;47.322;18.784;2023-03-11T00:49:51;981.81;;;10.41;57.68
48810;BME280;40070;47.322;18.784;2023-03-11T00:51:53;981.85;;;10.54;57.21
48810;BME280;40070;47.322;18.784;2023-03-11T00:53:55;981.88;;;10.39;57.37
48810;BME280;40070;47.322;18.784;2023-03-11T00:55:58;981.90;;;10.43;57.00
48810;BME280;40070;47.322;18.784;2023-03-11T00:58:01;981.92;;;10.45;57.24
48810;BME280;40070;47.322;18.784;2023-03-11T01:00:04;981.84;;;10.39;57.37
48810;BME280;40070;47.322;18.784;2023-03-11T01:02:07;981.89;;;10.33;57.45
48810;BME280;40070;47.322;18.784;2023-03-11T01:04:09;981.78;;;10.31;57.06
48810;BME280;40070;47.322;18.784;2023-03-11T01:06:12;981.75;;;10.38;57.58
48810;BME280;40070;47.322;18.784;2023-03-11T01:08:14;981.71;;;10.32;56.81
48810;BME280;40070;47.322;18.784;2023-03-11T01:10:17;981.70;;;10.43;56.53
48810;BME280;40070;47.322;18.784;2023-03-11T01:12:19;981.66;;;10.25;56.54
48810;BME280;40070;47.322;18.784;2023-03-11T01:14:22;981.55;;;10.29;56.29
48810;BME280;40070;47.322;18.784;2023-03-11T01:16:24;981.59;;;10.27;56.13
48810;BME280;40070;47.322;18.784;2023-03-11T01:18:27;981.67;;;10.39;56.19
48810;BME280;40070;47.322;18.784;2023-03-11T01:20:29;981.60;;;10.33;56.19
48810;BME280;40070;47.322;18.784;2023-03-11T01:22:31;981.60;;;10.24;56.17
48810;BME280;40070;47.322;18.784;2023-03-11T01:24:34;981.63;;;10.25;56.25
48810;BME280;40070;47.322;18.784;2023-03-11T01:26:36;981.56;;;10.17;56.17
48810;BME280;40070;47.322;18.784;2023-03-11T01:28:38;981.68;;;10.19;55.87
48810;BME280;40070;47.322;18.784;2023-03-11T01:30:41;981.61;;;10.25;55.43
48810;BME280;40070;47.322;18.784;2023-03-11T01:32:44;981.61;;;10.28;55.34
48810;BME280;40070;47.322;18.784;2023-03-11T01:34:46;981.76;;;10.29;55.25
48810;BME280;40070;47.322;18.784;2023-03-11T01:36:48;981.68;;;10.34;55.54
48810;BME280;40070;47.322;18.784;2023-03-11T01:38:51;981.61;;;10.29;55.07
48810;BME280;40070;47.322;18.784;2023-03-11T01:40:53;981.63;;;10.25;55.34
48810;BME280;40070;47.322;18.784;2023-03-11T01:42:56;981.60;;;10.13;55.36
48810;BME280;40070;47.322;18.784;2023-03-11T01:44:58;981.74;;;10.19;54.94
48810;BME280;40070;47.322;18.784;2023-03-11T01:49:15;981.85;;;10.23;55.36
48810;BME280;40070;47.322;18.784;2023-03-11T01:51:19;981.85;;;10.17;55.14
48810;BME280;40070;47.322;18.784;2023-03-11T01:53:22;981.91;;;10.17;55.09
48810;BME280;40070;47.322;18.784;2023-03-11T01:55:25;981.74;;;10.19;55.11
48810;BME280;40070;47.322;18.784;2023-03-11T01:57:29;981.77;;;10.17;55.27
48810;BME280;40070;47.322;18.784;2023-03-11T01:59:32;981.73;;;10.23;54.59
48810;BME280;40070;47.322;18.784;2023-03-11T02:01:45;981.61;;;10.19;54.82
48810;BME280;40070;47.322;18.784;2023-03-11T02:03:51;981.74;;;10.26;54.84
48810;BME280;40070;47.322;18.784;2023-03-11T02:05:54;981.75;;;10.30;55.17
48810;BME280;40070;47.322;18.784;2023-03-11T02:07:57;981.75;;;10.25;55.10
48810;BME280;40070;47.322;18.784;2023-03-11T02:10:00;981.72;;;10.24;55.10
48810;BME280;40070;47.322;18.784;2023-03-11T02:12:03;981.68;;;10.20;54.95
48810;BME280;40070;47.322;18.784;2023-03-11T02:14:06;981.62;;;10.39;54.55
48810;BME280;40070;47.322;18.784;2023-03-11T02:16:10;981.58;;;10.26;55.08
48810;BME280;40070;47.322;18.784;2023-03-11T02:18:12;981.58;;;10.16;54.64
48810;BME280;40070;47.322;18.784;2023-03-11T02:22:42;981.58;;;10.12;54.46
48810;BME280;40070;47.322;18.784;2023-03-11T02:27:09;981.61;;;10.23;54.14
48810;BME280;40070;47.322;18.784;2023-03-11T02:29:12;981.60;;;10.16;53.85
48810;BME280;40070;47.322;18.784;2023-03-11T02:31:15;981.58;;;10.19;53.08
48810;BME280;40070;47.322;18.784;2023-03-11T02:33:18;981.74;;;10.21;53.73
48810;BME280;40070;47.322;18.784;2023-03-11T02:35:20;981.64;;;10.17;53.23
48810;BME280;40070;47.322;18.784;2023-03-11T02:37:23;981.65;;;10.28;52.64
48810;BME280;40070;47.322;18.784;2023-03-11T02:39:29;981.67;;;10.30;52.04
48810;BME280;40070;47.322;18.784;2023-03-11T02:41:32;981.64;;;10.18;52.47
48810;BME280;40070;47.322;18.784;2023-03-11T02:43:40;981.78;;;10.15;52.36
48810;BME280;40070;47.322;18.784;2023-03-11T02:45:43;981.80;;;10.19;51.47
48810;BME280;40070;47.322;18.784;2023-03-11T02:47:46;981.73;;;10.21;51.68
48810;BME280;40070;47.322;18.784;2023-03-11T02:49:50;981.86;;;10.14;51.06
48810;BME280;40070;47.322;18.784;2023-03-11T02:51:52;981.85;;;10.13;51.34
48810;BME280;40070;47.322;18.784;2023-03-11T02:53:55;981.98;;;10.25;50.36
48810;BME280;40070;47.322;18.784;2023-03-11T02:55:59;981.99;;;10.27;50.78
48810;BME280;40070;47.322;18.784;2023-03-11T02:58:01;982.05;;;10.30;50.61
48810;BME280;40070;47.322;18.784;2023-03-11T03:00:04;982.04;;;10.34;50.35
48810;BME280;40070;47.322;18.784;2023-03-11T03:02:06;982.19;;;10.34;49.96
48810;BME280;40070;47.322;18.784;2023-03-11T03:04:09;982.19;;;10.34;50.16
48810;BME280;40070;47.322;18.784;2023-03-11T03:06:11;982.34;;;10.31;49.53
48810;BME280;40070;47.322;18.784;2023-03-11T03:08:14;982.25;;;10.27;49.83
48810;BME280;40070;47.322;18.784;2023-03-11T03:10:16;982.42;;;10.30;47.95
48810;BME280;40070;47.322;18.784;2023-03-11T03:12:19;982.31;;;10.18;47.32
48810;BME280;40070;47.322;18.784;2023-03-11T03:14:21;982.45;;;10.19;46.87
48810;BME280;40070;47.322;18.784;2023-03-11T03:16:24;982.35;;;10.12;45.76
48810;BME280;40070;47.322;18.784;2023-03-11T03:18:26;982.35;;;10.09;45.93
48810;BME280;40070;47.322;18.784;2023-03-11T03:20:29;982.44;;;10.07;46.65
48810;BME280;40070;47.322;18.784;2023-03-11T03:22:31;982.50;;;9.96;46.30
48810;BME280;40070;47.322;18.784;2023-03-11T03:24:33;982.57;;;9.99;46.14
48810;BME280;40070;47.322;18.784;2023-03-11T03:26:36;982.26;;;9.92;45.69
48810;BME280;40070;47.322;18.784;2023-03-11T03:28:38;982.40;;;9.83;45.62
48810;BME280;40070;47.322;18.784;2023-03-11T03:30:41;982.49;;;9.83;45.38
48810;BME280;40070;47.322;18.784;2023-03-11T03:32:43;982.40;;;9.83;45.69
48810;BME280;40070;47.322;18.784;2023-03-11T03:34:45;982.59;;;9.81;45.92
48810;BME280;40070;47.322;18.784;2023-03-11T03:36:48;982.56;;;9.76;45.55
48810;BME280;40070;47.322;18.784;2023-03-11T03:38:56;982.55;;;9.72;45.40
48810;BME280;40070;47.322;18.784;2023-03-11T03:40:59;982.67;;;9.64;45.60
48810;BME280;40070;47.322;18.784;2023-03-11T03:43:02;982.64;;;9.66;45.73
48810;BME280;40070;47.322;18.784;2023-03-11T03:45:05;982.72;;;9.72;45.70
48810;BME280;40070;47.322;18.784;2023-03-11T03:47:08;982.69;;;9.62;45.55
48810;BME280;40070;47.322;18.784;2023-03-11T03:49:10;982.64;;;9.45;45.64
48810;BME280;40070;47.322;18.784;2023-03-11T03:51:12;982.76;;;9.52;45.22
48810;BME280;40070;47.322;18.784;2023-03-11T03:53:15;982.83;;;9.54;45.48
48810;BME280;40070;47.322;18.784;2023-03-11T03:55:17;982.82;;;9.41;46.25
48810;BME280;40070;47.322;18.784;2023-03-11T03:57:20;982.95;;;9.43;45.65
48810;BME280;40070;47.322;18.784;2023-03-11T03:59:22;982.98;;;9.40;46.05
48810;BME280;40070;47.322;18.784;2023-03-11T04:01:25;982.88;;;9.40;45.67
48810;BME280;40070;47.322;18.784;2023-03-11T04:03:27;982.95;;;9.42;46.05
48810;BME280;40070;47.322;18.784;2023-03-11T04:05:30;983.17;;;9.39;45.45
48810;BME280;40070;47.322;18.784;2023-03-11T04:07:33;982.88;;;9.30;44.45
48810;BME280;40070;47.322;18.784;2023-03-11T04:09:37;982.97;;;9.26;44.51
48810;BME280;40070;47.322;18.784;2023-03-11T04:11:39;982.99;;;9.24;44.66
48810;BME280;40070;47.322;18.784;2023-03-11T04:13:42;982.97;;;9.15;44.26
48810;BME280;40070;47.322;18.784;2023-03-11T04:19:50;983.14;;;8.70;45.29
48810;BME280;40070;47.322;18.784;2023-03-11T04:21:51;983.13;;;9.03;43.85
48810;BME280;40070;47.322;18.784;2023-03-11T04:23:52;983.20;;;9.00;43.38
48810;BME280;40070;47.322;18.784;2023-03-11T04:25:52;983.18;;;8.95;43.26
48810;BME280;40070;47.322;18.784;2023-03-11T04:27:53;983.20;;;8.88;43.18
48810;BME280;40070;47.322;18.784;2023-03-11T04:29:54;983.02;;;8.92;42.94
48810;BME280;40070;47.322;18.784;2023-03-11T04:31:55;983.16;;;8.96;42.51
48810;BME280;40070;47.322;18.784;2023-03-11T04:33:56;983.23;;;8.85;42.89
48810;BME280;40070;47.322;18.784;2023-03-11T04:35:57;983.09;;;8.80;42.96
48810;BME280;40070;47.322;18.784;2023-03-11T04:37:59;983.06;;;8.94;42.75
48810;BME280;40070;47.322;18.784;2023-03-11T04:40:00;983.07;;;8.78;42.87
48810;BME280;40070;47.322;18.784;2023-03-11T04:42:01;982.97;;;8.73;42.57
48810;BME280;40070;47.322;18.784;2023-03-11T04:44:01;983.14;;;8.79;42.36
48810;BME280;40070;47.322;18.784;2023-03-11T04:46:02;983.08;;;8.81;42.38
48810;BME280;40070;47.322;18.784;2023-03-11T04:48:03;983.26;;;8.82;42.87
48810;BME280;40070;47.322;18.784;2023-03-11T04:50:04;983.21;;;8.73;42.39
48810;BME280;40070;47.322;18.784;2023-03-11T04:52:05;983.08;;;8.76;42.94
48810;BME280;40070;47.322;18.784;2023-03-11T04:54:06;983.03;;;8.70;42.59
48810;BME280;40070;47.322;18.784;2023-03-11T04:56:07;983.22;;;8.63;42.69
48810;BME280;40070;47.322;18.784;2023-03-11T04:58:08;983.14;;;8.45;41.90
48810;BME280;40070;47.322;18.784;2023-03-11T05:00:10;983.38;;;8.47;42.69
48810;BME280;40070;47.322;18.784;2023-03-11T05:02:11;983.24;;;8.20;40.63
48810;BME280;40070;47.322;18.784;2023-03-11T05:04:12;983.06;;;8.10;38.34
48810;BME280;40070;47.322;18.784;2023-03-11T05:06:13;983.39;;;8.02;39.55
48810;BME280;40070;47.322;18.784;2023-03-11T05:08:14;983.26;;;8.11;39.81
48810;BME280;40070;47.322;18.784;2023-03-11T05:10:15;983.14;;;7.87;39.10
48810;BME280;40070;47.322;18.784;2023-03-11T05:12:16;983.18;;;7.93;39.96
48810;BME280;40070;47.322;18.784;2023-03-11T05:14:17;983.31;;;7.72;39.75
48810;BME280;40070;47.322;18.784;2023-03-11T05:16:17;983.44;;;7.75;40.48
48810;BME280;40070;47.322;18.784;2023-03-11T05:18:18;983.60;;;7.67;40.85
48810;BME280;40070;47.322;18.784;2023-03-11T05:20:19;983.48;;;7.63;40.70
48810;BME280;40070;47.322;18.784;2023-03-11T05:22:20;983.59;;;7.53;41.04
48810;BME280;40070;47.322;18.784;2023-03-11T05:24:21;983.83;;;7.47;41.71
48810;BME280;40070;47.322;18.784;2023-03-11T05:26:22;983.68;;;7.35;41.49
48810;BME280;40070;47.322;18.784;2023-03-11T05:28:23;983.76;;;7.35;41.47
48810;BME280;40070;47.322;18.784;2023-03-11T05:30:24;983.78;;;7.28;41.70
48810;BME280;40070;47.322;18.784;2023-03-11T05:32:25;983.77;;;7.30;42.37
48810;BME280;40070;47.322;18.784;2023-03-11T05:34:26;983.80;;;7.35;42.62
48810;BME280;40070;47.322;18.784;2023-03-11T05:36:26;983.93;;;7.25;42.79
48810;BME280;40070;47.322;18.784;2023-03-11T05:38:27;983.96;;;7.19;41.67
48810;BME280;40070;47.322;18.784;2023-03-11T05:40:28;983.82;;;7.07;42.44
48810;BME280;40070;47.322;18.784;2023-03-11T05:42:29;983.62;;;7.10;42.38
48810;BME280;40070;47.322;18.784;2023-03-11T05:44:30;983.76;;;7.00;41.81
48810;BME280;40070;47.322;18.784;2023-03-11T05:46:31;983.73;;;7.01;42.32
48810;BME280;40070;47.322;18.784;2023-03-11T05:48:32;983.70;;;7.00;42.59
48810;BME280;40070;47.322;18.784;2023-03-11T05:50:33;983.79;;;7.09;42.45
48810;BME280;40070;47.322;18.784;2023-03-11T05:52:34;983.90;;;7.03;42.39
48810;BME280;40070;47.322;18.784;2023-03-11T05:54:35;983.83;;;7.20;43.12
48810;BME280;40070;47.322;18.784;2023-03-11T05:56:36;983.90;;;7.11;42.95
48810;BME280;40070;47.322;18.784;2023-03-11T05:58:37;983.92;;;7.14;42.57
48810;BME280;40070;47.322;18.784;2023-03-11T06:00:38;983.94;;;7.00;42.69
48810;BME280;40070;47.322;18.784;2023-03-11T06:02:40;984.05;;;6.98;42.78
48810;BME280;40070;47.322;18.784;2023-03-11T06:04:41;984.04;;;6.99;43.10
48810;BME280;40070;47.322;18.784;2023-03-11T06:06:42;984.08;;;6.95;43.22
48810;BME280;40070;47.322;18.784;2023-03-11T06:08:43;984.20;;;6.90;42.31
48810;BME280;40070;47.322;18.784;2023-03-11T06:10:43;984.26;;;7.12;42.11
48810;BME280;40070;47.322;18.784;2023-03-11T06:12:44;984.35;;;6.98;42.28
48810;BME280;40070;47.322;18.784;2023-03-11T06:14:45;984.41;;;6.97;42.23
48810;BME280;40070;47.322;18.784;2023-03-11T06:16:46;984.46;;;7.05;42.42
48810;BME280;40070;47.322;18.784;2023-03-11T06:18:47;984.56;;;6.97;42.17
48810;BME280;40070;47.322;18.784;2023-03-11T06:20:48;984.61;;;7.07;42.58
48810;BME280;40070;47.322;18.784;2023-03-11T06:22:49;984.58;;;6.83;42.26
48810;BME280;40070;47.322;18.784;2023-03-11T06:24:50;984.68;;;6.90;43.00
48810;BME280;40070;47.322;18.784;2023-03-11T06:26:51;984.78;;;6.78;42.54
48810;BME280;40070;47.322;18.784;2023-03-11T06:28:52;984.77;;;6.63;42.71
48810;BME280;40070;47.322;18.784;2023-03-11T06:30:53;984.93;;;6.82;43.12
48810;BME280;40070;47.322;18.784;2023-03-11T06:32:54;984.88;;;6.89;42.92
48810;BME280;40070;47.322;18.784;2023-03-11T06:34:55;984.88;;;6.77;42.58
48810;BME280;40070;47.322;18.784;2023-03-11T06:36:56;984.91;;;6.71;41.74
48810;BME280;40070;47.322;18.784;2023-03-11T06:38:57;984.84;;;6.56;41.86
48810;BME280;40070;47.322;18.784;2023-03-11T06:40:58;984.88;;;6.59;42.19
48810;BME280;40070;47.322;18.784;2023-03-11T06:43:00;984.84;;;6.53;42.50
48810;BME280;40070;47.322;18.784;2023-03-11T06:45:00;985.03;;;6.44;42.24
48810;BME280;40070;47.322;18.784;2023-03-11T06:47:01;984.93;;;6.48;42.28
48810;BME280;40070;47.322;18.784;2023-03-11T06:49:02;985.03;;;6.44;41.75
48810;BME280;40070;47.322;18.784;2023-03-11T06:51:04;985.07;;;6.37;41.11
48810;BME280;40070;47.322;18.784;2023-03-11T06:53:05;984.97;;;6.49;41.41
48810;BME280;40070;47.322;18.784;2023-03-11T06:55:06;984.95;;;6.32;41.31
48810;BME280;40070;47.322;18.784;2023-03-11T06:57:07;985.14;;;6.38;41.29
48810;BME280;40070;47.322;18.784;2023-03-11T06:59:09;985.06;;;6.46;41.60
48810;BME280;40070;47.322;18.784;2023-03-11T07:01:29;984.88;;;6.71;41.62
48810;BME280;40070;47.322;18.784;2023-03-11T07:03:27;985.05;;;6.67;41.09
48810;BME280;40070;47.322;18.784;2023-03-11T07:05:28;985.20;;;6.65;40.86
48810;BME280;40070;47.322;18.784;2023-03-11T07:07:29;985.10;;;6.70;41.25
48810;BME280;40070;47.322;18.784;2023-03-11T07:09:30;985.11;;;6.79;40.54
48810;BME280;40070;47.322;18.784;2023-03-11T07:11:31;985.14;;;6.85;40.63
48810;BME280;40070;47.322;18.784;2023-03-11T07:13:32;985.17;;;6.73;40.66
48810;BME280;40070;47.322;18.784;2023-03-11T07:15:33;985.13;;;6.94;40.27
48810;BME280;40070;47.322;18.784;2023-03-11T07:17:34;985.15;;;6.84;40.35
48810;BME280;40070;47.322;18.784;2023-03-11T07:19:35;985.28;;;6.83;40.40
48810;BME280;40070;47.322;18.784;2023-03-11T07:21:35;985.30;;;6.84;40.88
48810;BME280;40070;47.322;18.784;2023-03-11T07:23:36;985.15;;;6.83;39.99
48810;BME280;40070;47.322;18.784;2023-03-11T07:25:37;985.28;;;6.65;40.69
48810;BME280;40070;47.322;18.784;2023-03-11T07:27:38;985.04;;;6.79;40.64
48810;BME280;40070;47.322;18.784;2023-03-11T07:29:39;985.01;;;6.71;41.12
48810;BME280;40070;47.322;18.784;2023-03-11T07:31:40;984.98;;;6.63;40.78
48810;BME280;40070;47.322;18.784;2023-03-11T07:33:41;985.06;;;6.69;40.63
48810;BME280;40070;47.322;18.784;2023-03-11T07:35:42;984.97;;;6.93;40.39
48810;BME280;40070;47.322;18.784;2023-03-11T07:37:43;984.83;;;6.78;40.33
48810;BME280;40070;47.322;18.784;2023-03-11T07:39:44;984.60;;;6.69;40.45
48810;BME280;40070;47.322;18.784;2023-03-11T07:41:45;984.81;;;6.73;40.70
48810;BME280;40070;47.322;18.784;2023-03-11T07:43:46;984.65;;;6.76;40.97
48810;BME280;40070;47.322;18.784;2023-03-11T07:45:47;984.59;;;6.69;40.58
48810;BME280;40070;47.322;18.784;2023-03-11T07:47:48;984.69;;;6.71;40.96
48810;BME280;40070;47.322;18.784;2023-03-11T07:49:49;984.62;;;6.64;40.80
48810;BME280;40070;47.322;18.784;2023-03-11T07:51:49;984.56;;;6.40;40.37
48810;BME280;40070;47.322;18.784;2023-03-11T07:53:51;984.61;;;6.41;40.86
48810;BME280;40070;47.322;18.784;2023-03-11T07:55:55;984.69;;;6.49;41.16
48810;BME280;40070;47.322;18.784;2023-03-11T07:57:56;984.84;;;6.52;40.87
48810;BME280;40070;47.322;18.784;2023-03-11T07:59:57;984.64;;;6.40;40.75
48810;BME280;40070;47.322;18.784;2023-03-11T08:01:58;984.96;;;6.45;41.28
48810;BME280;40070;47.322;18.784;2023-03-11T08:03:59;985.05;;;6.40;41.17
48810;BME280;40070;47.322;18.784;2023-03-11T08:06:00;984.81;;;6.34;41.75
48810;BME280;40070;47.322;18.784;2023-03-11T08:08:01;985.13;;;6.46;41.26
48810;BME280;40070;47.322;18.784;2023-03-11T08:10:02;985.10;;;6.52;40.96
48810;BME280;40070;47.322;18.784;2023-03-11T08:12:03;984.99;;;6.62;40.63
48810;BME280;40070;47.322;18.784;2023-03-11T08:14:04;984.85;;;6.61;40.80
48810;BME280;40070;47.322;18.784;2023-03-11T08:16:05;984.87;;;6.59;40.16
48810;BME280;40070;47.322;18.784;2023-03-11T08:18:07;984.74;;;6.65;40.56
48810;BME280;40070;47.322;18.784;2023-03-11T08:20:09;985.09;;;6.80;39.57
48810;BME280;40070;47.322;18.784;2023-03-11T08:22:10;984.77;;;6.93;40.04
48810;BME280;40070;47.322;18.784;2023-03-11T08:24:11;984.92;;;7.19;40.19
48810;BME280;40070;47.322;18.784;2023-03-11T08:26:14;984.67;;;7.40;40.45
48810;BME280;40070;47.322;18.784;2023-03-11T08:28:15;984.68;;;7.39;39.64
48810;BME280;40070;47.322;18.784;2023-03-11T08:30:16;984.87;;;7.52;40.39
48810;BME280;40070;47.322;18.784;2023-03-11T08:32:17;984.87;;;7.67;39.46
48810;BME280;40070;47.322;18.784;2023-03-11T08:34:18;984.97;;;7.57;38.52
48810;BME280;40070;47.322;18.784;2023-03-11T08:36:19;984.90;;;7.40;38.83
48810;BME280;40070;47.322;18.784;2023-03-11T08:38:20;984.96;;;7.43;39.52
48810;BME280;40070;47.322;18.784;2023-03-11T08:40:21;985.04;;;7.50;39.89
48810;BME280;40070;47.322;18.784;2023-03-11T08:42:22;984.95;;;7.54;39.40
48810;BME280;40070;47.322;18.784;2023-03-11T08:44:23;984.94;;;7.26;38.86
48810;BME280;40070;47.322;18.784;2023-03-11T08:46:31;984.73;;;7.10;38.96
48810;BME280;40070;47.322;18.784;2023-03-11T08:48:32;984.78;;;7.36;39.09
48810;BME280;40070;47.322;18.784;2023-03-11T08:50:33;984.83;;;7.27;38.94
48810;BME280;40070;47.322;18.784;2023-03-11T08:52:35;984.97;;;7.41;39.16
48810;BME280;40070;47.322;18.784;2023-03-11T08:54:36;985.15;;;7.52;38.23
48810;BME280;40070;47.322;18.784;2023-03-11T08:56:37;985.12;;;7.70;38.22
48810;BME280;40070;47.322;18.784;2023-03-11T08:58:38;985.54;;;7.94;38.54
48810;BME280;40070;47.322;18.784;2023-03-11T09:00:39;985.50;;;7.91;38.07
48810;BME280;40070;47.322;18.784;2023-03-11T09:02:39;985.52;;;8.07;38.44
48810;BME280;40070;47.322;18.784;2023-03-11T09:04:40;985.61;;;8.01;38.04
48810;BME280;40070;47.322;18.784;2023-03-11T09:06:42;985.76;;;8.28;38.88
48810;BME280;40070;47.322;18.784;2023-03-11T09:08:43;985.85;;;8.85;37.85
48810;BME280;40070;47.322;18.784;2023-03-11T09:10:45;986.01;;;8.88;38.51
48810;BME280;40070;47.322;18.784;2023-03-11T09:12:46;986.04;;;8.44;36.40
48810;BME280;40070;47.322;18.784;2023-03-11T09:14:47;986.10;;;8.42;37.23
48810;BME280;40070;47.322;18.784;2023-03-11T09:16:47;986.09;;;8.63;37.63
48810;BME280;40070;47.322;18.784;2023-03-11T09:18:48;986.19;;;9.01;37.84
48810;BME280;40070;47.322;18.784;2023-03-11T09:20:49;986.13;;;9.11;37.06
48810;BME280;40070;47.322;18.784;2023-03-11T09:22:50;986.26;;;9.00;37.16
48810;BME280;40070;47.322;18.784;2023-03-11T09:24:51;986.56;;;9.08;37.13
48810;BME280;40070;47.322;18.784;2023-03-11T09:26:52;986.29;;;9.16;37.67
48810;BME280;40070;47.322;18.784;2023-03-11T09:28:53;986.24;;;9.03;36.55
48810;BME280;40070;47.322;18.784;2023-03-11T09:30:54;986.39;;;8.91;37.00
48810;BME280;40070;47.322;18.784;2023-03-11T09:32:55;986.33;;;9.19;37.12
48810;BME280;40070;47.322;18.784;2023-03-11T09:34:56;986.32;;;9.21;36.32
48810;BME280;40070;47.322;18.784;2023-03-11T09:36:56;986.34;;;9.02;36.96
48810;BME280;40070;47.322;18.784;2023-03-11T09:38:57;986.56;;;9.11;36.96
48810;BME280;40070;47.322;18.784;2023-03-11T09:41:01;986.71;;;9.22;36.54
48810;BME280;40070;47.322;18.784;2023-03-11T09:43:06;986.51;;;9.04;36.24
48810;BME280;40070;47.322;18.784;2023-03-11T09:45:14;986.63;;;8.77;37.38
48810;BME280;40070;47.322;18.784;2023-03-11T09:47:29;986.76;;;8.96;36.93
48810;BME280;40070;47.322;18.784;2023-03-11T09:49:36;986.68;;;8.97;36.55
48810;BME280;40070;47.322;18.784;2023-03-11T09:51:42;986.80;;;9.18;37.02
48810;BME280;40070;47.322;18.784;2023-03-11T09:53:46;986.85;;;9.52;37.08
48810;BME280;40070;47.322;18.784;2023-03-11T09:55:51;986.76;;;9.93;36.19
48810;BME280;40070;47.322;18.784;2023-03-11T09:57:52;986.67;;;9.89;35.22
48810;BME280;40070;47.322;18.784;2023-03-11T09:59:54;986.77;;;9.96;34.87
48810;BME280;40070;47.322;18.784;2023-03-11T10:01:56;986.95;;;9.88;34.93
48810;BME280;40070;47.322;18.784;2023-03-11T10:03:59;987.00;;;9.76;34.54
48810;BME280;40070;47.322;18.784;2023-03-11T10:06:12;987.15;;;9.79;33.80
48810;BME280;40070;47.322;18.784;2023-03-11T10:08:37;987.03;;;9.77;35.01
48810;BME280;40070;47.322;18.784;2023-03-11T10:10:27;986.96;;;9.58;35.13
48810;BME280;40070;47.322;18.784;2023-03-11T10:15:03;987.07;;;9.60;35.11
48810;BME280;40070;47.322;18.784;2023-03-11T10:19:42;986.95;;;9.87;34.29
48810;BME280;40070;47.322;18.784;2023-03-11T10:21:42;987.00;;;10.26;35.47
48810;BME280;40070;47.322;18.784;2023-03-11T10:23:55;987.00;;;10.16;34.55
48810;BME280;40070;47.322;18.784;2023-03-11T10:26:22;987.07;;;9.73;34.58
48810;BME280;40070;47.322;18.784;2023-03-11T10:28:35;986.96;;;9.88;34.41
48810;BME280;40070;47.322;18.784;2023-03-11T10:33:03;986.85;;;9.44;35.08
48810;BME280;40070;47.322;18.784;2023-03-11T10:35:14;986.96;;;9.55;35.76
48810;BME280;40070;47.322;18.784;2023-03-11T10:37:17;986.81;;;9.20;35.40
48810;BME280;40070;47.322;18.784;2023-03-11T10:39:19;987.09;;;8.91;35.25
48810;BME280;40070;47.322;18.784;2023-03-11T10:43:38;986.76;;;8.44;34.52
48810;BME280;40070;47.322;18.784;2023-03-11T10:45:41;986.54;;;8.46;35.26
48810;BME280;40070;47.322;18.784;2023-03-11T10:47:42;986.60;;;8.56;35.47
48810;BME280;40070;47.322;18.784;2023-03-11T10:49:44;986.65;;;8.39;35.64
48810;BME280;40070;47.322;18.784;2023-03-11T10:51:49;986.61;;;8.43;35.49
48810;BME280;40070;47.322;18.784;2023-03-11T10:53:51;986.72;;;8.69;35.16
48810;BME280;40070;47.322;18.784;2023-03-11T10:55:53;986.71;;;8.98;34.27
48810;BME280;40070;47.322;18.784;2023-03-11T10:58:02;986.76;;;9.37;33.74
48810;BME280;40070;47.322;18.784;2023-03-11T11:00:05;986.58;;;9.51;33.81
48810;BME280;40070;47.322;18.784;2023-03-11T11:02:20;986.75;;;9.58;33.32
48810;BME280;40070;47.322;18.784;2023-03-11T11:04:24;986.68;;;9.62;33.50
48810;BME280;40070;47.322;18.784;2023-03-11T11:06:33;986.86;;;9.70;32.86
48810;BME280;40070;47.322;18.784;2023-03-11T11:08:35;986.72;;;9.79;33.07
48810;BME280;40070;47.322;18.784;2023-03-11T11:10:36;986.96;;;10.14;34.21
48810;BME280;40070;47.322;18.784;2023-03-11T11:14:51;987.09;;;10.36;32.79
48810;BME280;40070;47.322;18.784;2023-03-11T11:16:52;987.00;;;9.97;32.67
48810;BME280;40070;47.322;18.784;2023-03-11T11:18:58;987.13;;;10.22;33.29
48810;BME280;40070;47.322;18.784;2023-03-11T11:21:06;987.00;;;10.06;32.54
48810;BME280;40070;47.322;18.784;2023-03-11T11:23:11;987.30;;;9.90;32.94
48810;BME280;40070;47.322;18.784;2023-03-11T11:25:39;987.22;;;9.91;32.42